Central Virginia Flyers


Central Virginia Flyers is a 10 member flying club based in Richmond, VA at Hanover County Airport (KOFP). We own N787AT, a 1977 Cessna 172 with 180hp conversion. If you are interested in membership, please contact Brenton at brenton@cvflyers.org.


Aviation Digital Data Service (ADDS)

Output produced by METARs form (0431 UTC 01 April 2015)
found at http://aviationweather.gov/adds/metars/
 
KOFP 010354Z AUTO VRB05KT 10SM FEW100 12/04 A2987 RMK AO2 SLP113 T01220039
KRIC 010354Z 02013G17KT 10SM BKN110 14/04 A2984 RMK AO2 SLP110 T01440039
KRIC 010240Z 0103/0124 01015G25KT P6SM BKN090 
     FM010500 36012G20KT P6SM SCT250 
     FM010800 35008KT P6SM SKC